Time;durP1;ratioP1;P1;durP2;ratioP2;P2;SDS_P1;SDS_P2;PMS_P1;PMS_P2;Temp;Humidity;BMP_temperature;BMP_pressure;BME280_temperature;BME280_humidity;BME280_pressure;Samples;Min_cycle;Max_cycle;Signal;HPM_P1;HPM_P2
2021/08/09 00:00:27;;;;;;;3.30;1.60;;;;;;;17.13;67.05;100561.84;4972001;28;20496;-79
2021/08/09 00:02:52;;;;;;;1.47;1.30;;;;;;;17.16;66.92;100554.97;4970620;28;20429;-79
2021/08/09 00:05:18;;;;;;;3.93;1.33;;;;;;;17.16;67.30;100549.50;4971805;28;20883;-79
2021/08/09 00:07:43;;;;;;;2.30;1.38;;;;;;;17.13;67.31;100550.06;4972610;28;20433;-79
2021/08/09 00:10:09;;;;;;;4.27;1.57;;;;;;;17.07;67.43;100553.94;4971594;28;20748;-79
2021/08/09 00:12:34;;;;;;;4.88;1.33;;;;;;;17.04;67.51;100549.88;4972327;28;20408;-79
2021/08/09 00:14:59;;;;;;;4.07;1.90;;;;;;;17.04;67.35;100544.41;4971445;28;20459;-79
2021/08/09 00:17:25;;;;;;;4.80;1.23;;;;;;;17.02;67.60;100545.78;4972120;28;20763;-79
2021/08/09 00:19:50;;;;;;;3.80;1.80;;;;;;;17.03;67.68;100545.50;4972011;28;20902;-79
2021/08/09 00:22:15;;;;;;;1.47;1.23;;;;;;;17.07;67.70;100543.00;4971865;28;20412;-79
2021/08/09 00:24:41;;;;;;;5.35;1.35;;;;;;;17.08;67.92;100542.72;4971780;28;20411;-79
2021/08/09 00:27:07;;;;;;;3.47;1.60;;;;;;;17.08;67.98;100536.44;4971353;28;20487;-79
2021/08/09 00:29:32;;;;;;;3.90;1.42;;;;;;;17.08;67.61;100542.72;4972022;28;20508;-79
2021/08/09 00:31:58;;;;;;;1.50;1.40;;;;;;;17.07;67.77;100541.09;4971501;28;20399;-79
2021/08/09 00:34:23;;;;;;;3.50;1.57;;;;;;;17.04;67.80;100544.41;4986731;28;20732;-79
2021/08/09 00:36:48;;;;;;;3.17;1.30;;;;;;;16.97;68.25;100543.06;4971634;28;20828;-79
2021/08/09 00:39:14;;;;;;;3.77;1.50;;;;;;;16.93;68.42;100548.31;4971761;28;20412;-79
2021/08/09 00:41:39;;;;;;;1.40;1.30;;;;;;;16.89;68.29;100540.97;4974229;28;20766;-79
2021/08/09 00:44:05;;;;;;;4.18;1.63;;;;;;;16.85;68.63;100534.41;4975270;28;20404;-79
2021/08/09 00:46:31;;;;;;;1.53;1.30;;;;;;;16.84;68.89;100532.78;4975629;28;20404;-79
2021/08/09 00:48:57;;;;;;;4.50;1.70;;;;;;;16.82;68.91;100533.06;4974749;28;20467;-79
2021/08/09 00:51:23;;;;;;;4.80;1.90;;;;;;;16.82;69.00;100540.47;4975017;28;20421;-79
2021/08/09 00:53:48;;;;;;;5.43;1.87;;;;;;;16.81;68.81;100533.34;4975226;28;20492;-79
2021/08/09 00:56:14;;;;;;;4.53;1.67;;;;;;;16.82;68.73;100537.72;4974965;28;20435;-79
2021/08/09 00:58:39;;;;;;;3.53;1.23;;;;;;;16.82;68.57;100538.53;4975063;28;20929;-79
2021/08/09 01:01:06;;;;;;;1.75;1.58;;;;;;;16.80;68.50;100543.47;4971802;28;20424;-79
2021/08/09 01:03:31;;;;;;;5.43;1.30;;;;;;;16.76;68.44;100547.06;4971878;28;20462;-79
2021/08/09 01:05:57;;;;;;;3.80;1.70;;;;;;;16.71;68.72;100544.34;4975207;28;20790;-79
2021/08/09 01:08:27;;;;;;;1.48;0.93;;;;;;;16.66;68.66;100544.41;4974752;28;20439;-79
2021/08/09 01:11:11;;;;;;;2.90;1.50;;;;;;;16.60;68.74;100543.59;4975142;28;20416;-79
2021/08/09 01:13:55;;;;;;;4.03;1.77;;;;;;;16.51;68.88;100548.81;4967918;28;20479;-79
2021/08/09 01:16:27;;;;;;;3.10;1.13;;;;;;;16.43;68.99;100545.84;4974794;28;20902;-79
2021/08/09 01:18:59;;;;;;;2.40;1.13;;;;;;;16.39;69.18;100553.81;4975123;28;20404;-79
2021/08/09 01:21:26;;;;;;;2.40;1.80;;;;;;;16.35;69.12;100547.25;4989535;28;20439;-79
2021/08/09 01:24:32;;;;;;;2.10;1.30;;;;;;;16.33;69.53;100549.47;4974560;28;20411;-79
2021/08/09 01:27:08;;;;;;;3.58;1.58;;;;;;;16.32;69.55;100555.19;4924795;29;20409;-79
2021/08/09 01:29:37;;;;;;;2.92;1.80;;;;;;;16.31;69.54;100548.09;4933184;29;20415;-79
2021/08/09 01:32:03;;;;;;;3.63;1.73;;;;;;;16.33;69.88;100556.84;4967491;28;20405;-79
2021/08/09 01:34:30;;;;;;;2.38;1.50;;;;;;;16.35;69.79;100558.19;4989189;28;20420;-79
2021/08/09 01:36:58;;;;;;;3.70;1.90;;;;;;;16.38;69.61;100548.59;4974723;28;20404;-79
2021/08/09 01:39:23;;;;;;;1.73;0.90;;;;;;;16.39;69.05;100553.81;4974022;28;20427;-79
2021/08/09 01:41:51;;;;;;;2.63;1.20;;;;;;;16.35;68.71;100550.00;4974378;28;20985;-79
2021/08/09 01:44:17;;;;;;;4.30;1.00;;;;;;;16.25;68.45;100560.16;4974876;28;20807;-79
2021/08/09 01:46:44;;;;;;;3.57;1.10;;;;;;;16.14;68.01;100561.28;4974275;28;20468;-79
2021/08/09 01:49:11;;;;;;;3.05;1.17;;;;;;;15.89;68.52;100552.06;4973987;28;20949;-79
2021/08/09 01:51:37;;;;;;;4.05;1.50;;;;;;;15.82;69.19;100550.72;4972914;28;20439;-79
2021/08/09 01:54:03;;;;;;;2.35;1.42;;;;;;;15.83;69.26;100553.19;4973813;28;20424;-79
2021/08/09 01:56:31;;;;;;;8.25;1.27;;;;;;;15.86;69.31;100560.84;4974010;28;20423;-79
2021/08/09 01:58:56;;;;;;;10.10;1.88;;;;;;;15.89;69.18;100563.00;4973882;28;20435;-79
2021/08/09 02:01:22;;;;;;;3.35;1.40;;;;;;;15.90;69.16;100563.84;4974223;28;20542;-79
2021/08/09 02:03:48;;;;;;;4.50;1.40;;;;;;;15.89;69.10;100559.44;4972465;28;20430;-79
2021/08/09 02:06:14;;;;;;;3.40;1.13;;;;;;;15.90;69.07;100570.13;4973813;28;20487;-79
2021/08/09 02:08:40;;;;;;;3.90;1.55;;;;;;;15.84;69.43;100575.88;4973728;28;20415;-79
2021/08/09 02:11:13;;;;;;;2.03;1.23;;;;;;;15.84;69.49;100573.13;4972551;28;20412;-80
2021/08/09 02:14:06;;;;;;;1.02;1.02;;;;;;;15.86;69.55;100573.66;4974107;28;20419;-79
2021/08/09 02:16:38;;;;;;;4.20;1.52;;;;;;;15.88;69.80;100566.81;4969951;28;20423;-79
2021/08/09 02:19:07;;;;;;;2.58;1.52;;;;;;;15.89;69.64;100573.13;4974191;28;20404;-79
2021/08/09 02:21:40;;;;;;;5.07;1.27;;;;;;;15.87;69.34;100570.66;4973596;28;20412;-80
2021/08/09 02:24:10;;;;;;;1.55;1.20;;;;;;;15.87;69.68;100576.09;4967489;28;20415;-79
2021/08/09 02:26:42;;;;;;;1.40;1.30;;;;;;;15.86;69.66;100569.03;4972959;28;20404;-79
2021/08/09 02:29:14;;;;;;;1.90;1.80;;;;;;;15.89;69.99;100573.13;4973210;28;20464;-79
2021/08/09 02:31:42;;;;;;;3.20;1.30;;;;;;;15.89;69.89;100559.44;4973616;28;20527;-79
2021/08/09 02:34:09;;;;;;;5.10;1.80;;;;;;;15.89;69.95;100571.19;4973661;28;20408;-79
2021/08/09 02:36:35;;;;;;;2.97;1.42;;;;;;;15.88;69.93;100564.09;4973336;28;20416;-79
2021/08/09 02:39:01;;;;;;;2.25;1.13;;;;;;;15.86;69.60;100560.84;4973163;28;20412;-79
2021/08/09 02:41:28;;;;;;;4.60;1.40;;;;;;;15.87;70.26;100567.91;4972730;28;20447;-79
2021/08/09 02:43:54;;;;;;;3.10;1.60;;;;;;;15.90;70.38;100561.09;4973438;28;20510;-79
2021/08/09 02:46:20;;;;;;;4.47;1.35;;;;;;;15.90;70.15;100556.44;4973259;28;20419;-79
2021/08/09 02:48:48;;;;;;;2.65;1.15;;;;;;;15.89;69.83;100562.19;4972625;28;20408;-79
2021/08/09 02:51:16;;;;;;;4.20;1.33;;;;;;;15.88;70.42;100568.72;4972996;28;20430;-80
2021/08/09 02:53:42;;;;;;;2.20;1.37;;;;;;;15.89;70.16;100570.38;4973310;28;20499;-80
2021/08/09 02:56:08;;;;;;;2.80;1.60;;;;;;;15.91;69.95;100576.38;4973066;28;20467;-80
2021/08/09 02:58:34;;;;;;;3.90;1.20;;;;;;;15.93;70.12;100575.03;4972800;28;20903;-80
2021/08/09 03:01:00;;;;;;;4.80;1.90;;;;;;;15.93;70.14;100574.19;4987832;28;20432;-80
2021/08/09 03:03:28;;;;;;;3.35;1.73;;;;;;;15.90;69.90;100580.22;4972734;28;20400;-80
2021/08/09 03:05:56;;;;;;;4.07;1.93;;;;;;;15.89;70.07;100579.41;4972109;28;20963;-80
2021/08/09 03:08:23;;;;;;;1.67;1.42;;;;;;;15.89;70.27;100582.13;4972937;28;20499;-80
2021/08/09 03:10:49;;;;;;;3.67;1.80;;;;;;;15.91;70.22;100584.56;4972532;28;20435;-80
2021/08/09 03:13:19;;;;;;;2.78;1.55;;;;;;;15.92;70.36;100569.81;4969710;28;20812;-80
2021/08/09 03:15:44;;;;;;;2.38;1.40;;;;;;;15.91;70.28;100569.00;4988180;28;20898;-80
2021/08/09 03:18:10;;;;;;;3.35;1.60;;;;;;;15.91;70.56;100577.19;4987185;28;20471;-80
2021/08/09 03:20:35;;;;;;;2.40;1.90;;;;;;;15.93;70.39;100571.47;4972899;28;20448;-80
2021/08/09 03:23:00;;;;;;;4.90;1.73;;;;;;;15.93;70.27;100575.03;4972023;28;20439;-80
2021/08/09 03:25:26;;;;;;;3.58;1.85;;;;;;;15.93;70.64;100585.13;4972862;28;20415;-80
2021/08/09 03:27:51;;;;;;;4.23;1.63;;;;;;;15.91;70.52;100590.88;4972620;28;20408;-80
2021/08/09 03:30:16;;;;;;;4.30;1.27;;;;;;;15.89;70.47;100581.31;4987086;28;20993;-80
2021/08/09 03:32:42;;;;;;;2.20;1.90;;;;;;;15.85;70.34;100583.78;4972638;28;20400;-80
2021/08/09 03:35:07;;;;;;;3.13;1.80;;;;;;;15.84;70.75;100579.41;4972310;28;20443;-80
2021/08/09 03:37:32;;;;;;;3.55;1.83;;;;;;;15.88;70.70;100582.41;4971781;28;20408;-80
2021/08/09 03:39:58;;;;;;;2.10;1.70;;;;;;;15.86;70.77;100579.13;4971961;28;20420;-80
2021/08/09 03:42:23;;;;;;;2.97;2.22;;;;;;;15.86;70.74;100566.28;4972576;28;20408;-81
2021/08/09 03:44:49;;;;;;;5.30;1.90;;;;;;;15.88;70.69;100560.53;4972372;28;20411;-80
2021/08/09 03:47:14;;;;;;;5.00;1.63;;;;;;;15.89;70.65;100560.28;4972035;28;20495;-80
2021/08/09 03:49:40;;;;;;;3.47;2.17;;;;;;;15.89;70.29;100564.91;4972098;28;20771;-79
2021/08/09 03:52:05;;;;;;;2.57;1.70;;;;;;;15.87;70.64;100581.56;4971781;28;20431;-80
2021/08/09 03:54:30;;;;;;;2.30;1.90;;;;;;;15.91;70.54;100568.19;4972087;28;20400;-80
2021/08/09 03:56:55;;;;;;;3.70;1.83;;;;;;;15.94;70.60;100564.88;4971979;28;20499;-80
2021/08/09 03:59:21;;;;;;;2.37;1.77;;;;;;;15.96;70.36;100560.81;4971523;28;20957;-80
2021/08/09 04:01:48;;;;;;;6.33;1.93;;;;;;;15.97;70.21;100558.91;4972220;28;20559;-80
2021/08/09 04:04:14;;;;;;;3.60;1.60;;;;;;;15.98;70.15;100561.34;4970226;28;20946;-80
2021/08/09 04:06:39;;;;;;;6.82;1.45;;;;;;;15.98;70.01;100565.97;4972283;28;20411;-80
2021/08/09 04:09:07;;;;;;;1.57;1.50;;;;;;;15.96;70.26;100566.28;4985416;28;20434;-80
2021/08/09 04:11:32;;;;;;;1.67;1.50;;;;;;;15.95;70.16;100566.53;4986215;28;20412;-80
2021/08/09 04:13:57;;;;;;;4.10;1.43;;;;;;;15.94;70.08;100562.16;4966825;28;20412;-80
2021/08/09 04:16:23;;;;;;;1.90;1.30;;;;;;;15.92;69.94;100567.91;4973063;28;20412;-80
2021/08/09 04:18:48;;;;;;;1.33;1.13;;;;;;;15.92;69.99;100567.91;4973652;28;20488;-80
2021/08/09 04:21:13;;;;;;;3.03;1.37;;;;;;;15.90;69.62;100563.84;4974548;28;20436;-80
2021/08/09 04:23:39;;;;;;;5.20;1.93;;;;;;;15.87;69.91;100561.66;4977447;28;20402;-80
2021/08/09 04:26:04;;;;;;;2.47;2.03;;;;;;;15.86;70.22;100573.66;4975480;28;20470;-80
2021/08/09 04:28:29;;;;;;;2.40;1.70;;;;;;;15.85;70.43;100572.03;4982819;28;20447;-80
2021/08/09 04:30:54;;;;;;;4.63;1.70;;;;;;;15.85;70.70;100566.56;4978317;28;20784;-80
2021/08/09 04:33:20;;;;;;;3.53;1.50;;;;;;;15.86;70.66;100573.66;4978015;28;20455;-80
2021/08/09 04:35:45;;;;;;;2.07;1.33;;;;;;;15.86;70.30;100577.22;4980442;28;20410;-80
2021/08/09 04:38:10;;;;;;;3.23;1.70;;;;;;;15.81;70.17;100579.13;4978735;28;20452;-80
2021/08/09 04:40:35;;;;;;;3.93;1.70;;;;;;;15.82;70.55;100561.66;4983312;28;20432;-80
2021/08/09 04:43:01;;;;;;;5.20;2.20;;;;;;;15.88;70.57;100544.13;4974167;28;20414;-80
2021/08/09 04:45:26;;;;;;;2.83;1.80;;;;;;;15.88;70.66;100555.06;4978751;28;20435;-80
2021/08/09 04:47:52;;;;;;;5.07;1.57;;;;;;;15.85;70.81;100564.66;4974496;28;20918;-80
2021/08/09 04:50:17;;;;;;;4.55;1.48;;;;;;;15.87;71.02;100567.13;4974220;28;20430;-80
2021/08/09 04:52:43;;;;;;;3.88;1.60;;;;;;;15.84;71.24;100579.41;4973798;28;20864;-80
2021/08/09 04:55:10;;;;;;;2.13;1.43;;;;;;;15.84;71.32;100582.13;4974617;28;20511;-80
2021/08/09 04:57:35;;;;;;;3.38;1.70;;;;;;;15.86;71.10;100582.69;4977034;28;20422;-80
2021/08/09 05:00:00;;;;;;;2.17;1.60;;;;;;;15.91;71.15;100576.38;4974114;28;20427;-80
2021/08/09 05:02:26;;;;;;;2.13;1.70;;;;;;;15.97;71.03;100580.75;4974993;28;20486;-80
2021/08/09 05:04:51;;;;;;;6.03;2.00;;;;;;;16.02;71.07;100580.72;4973544;28;20410;-80
2021/08/09 05:07:16;;;;;;;2.67;1.67;;;;;;;16.10;70.76;100585.66;4985015;28;20424;-80
2021/08/09 05:09:41;;;;;;;6.20;1.63;;;;;;;16.17;70.44;100579.88;4974239;28;20767;-80
2021/08/09 05:12:07;;;;;;;4.80;1.63;;;;;;;16.21;70.58;100586.41;4971771;28;20498;-80
2021/08/09 05:14:32;;;;;;;4.00;1.77;;;;;;;16.24;70.81;100577.66;4969081;28;20921;-81
2021/08/09 05:16:57;;;;;;;3.17;1.30;;;;;;;16.28;70.71;100576.00;4971470;28;20423;-81
2021/08/09 05:19:23;;;;;;;4.93;1.83;;;;;;;16.29;70.57;100583.09;4971246;28;20432;-81
2021/08/09 05:21:48;;;;;;;3.43;2.20;;;;;;;16.30;70.61;100584.75;4967952;28;20412;-80
2021/08/09 05:24:13;;;;;;;4.13;1.63;;;;;;;16.32;70.88;100588.00;4972796;28;20415;-81
2021/08/09 05:26:38;;;;;;;4.40;1.73;;;;;;;16.39;70.71;100594.00;4972667;28;20408;-80
2021/08/09 05:29:04;;;;;;;2.67;1.30;;;;;;;16.44;70.47;100597.53;4971773;28;20415;-80
2021/08/09 05:31:29;;;;;;;3.43;1.70;;;;;;;16.48;70.13;100600.53;4973310;28;20455;-81
2021/08/09 05:33:57;;;;;;;4.10;1.23;;;;;;;16.45;69.84;100599.19;4973296;28;20483;-80
2021/08/09 05:36:23;;;;;;;1.75;1.13;;;;;;;16.40;69.86;100601.91;4971964;28;20408;-80
2021/08/09 05:38:48;;;;;;;2.30;1.48;;;;;;;16.34;70.14;100597.56;4974457;28;20936;-81
2021/08/09 05:41:14;;;;;;;2.63;1.43;;;;;;;16.42;70.14;100591.53;4986942;28;20962;-80
2021/08/09 05:43:39;;;;;;;3.40;1.40;;;;;;;16.47;70.33;100593.41;4973793;28;20909;-81
2021/08/09 05:46:04;;;;;;;3.63;1.30;;;;;;;16.46;70.72;100589.06;4974226;28;20407;-81
2021/08/09 05:48:29;;;;;;;4.73;1.87;;;;;;;16.46;70.94;100589.06;4972511;28;20462;-80
2021/08/09 05:50:55;;;;;;;2.20;1.30;;;;;;;16.48;70.68;100581.38;4972361;28;20418;-81
2021/08/09 05:53:21;;;;;;;3.70;1.30;;;;;;;16.48;71.32;100581.38;4975515;28;20506;-81
2021/08/09 05:55:46;;;;;;;3.55;1.50;;;;;;;16.35;71.83;100585.53;4966985;28;20415;-83
2021/08/09 05:58:11;;;;;;;3.23;1.30;;;;;;;16.29;71.90;100583.94;4971951;28;20412;-81
2021/08/09 06:00:37;;;;;;;3.80;1.60;;;;;;;16.24;72.04;100578.47;4971715;28;20514;-80
2021/08/09 06:03:03;;;;;;;5.50;1.83;;;;;;;16.25;71.96;100574.66;4973728;28;20946;-80
2021/08/09 06:05:28;;;;;;;3.00;1.73;;;;;;;16.26;71.01;100576.28;4974286;28;20759;-81
2021/08/09 06:07:54;;;;;;;2.47;1.50;;;;;;;16.28;70.86;100574.09;4973295;28;20503;-81
2021/08/09 06:10:21;;;;;;;1.37;1.27;;;;;;;16.33;71.04;100568.59;4978780;28;20892;-81
2021/08/09 06:12:47;;;;;;;2.95;1.45;;;;;;;16.32;71.13;100571.59;4955933;28;20416;-81
2021/08/09 06:15:12;;;;;;;3.17;1.90;;;;;;;16.28;71.39;100576.81;4979072;28;20408;-81
2021/08/09 06:17:37;;;;;;;2.03;1.37;;;;;;;16.30;71.74;100580.06;4971138;28;20926;-81
2021/08/09 06:20:04;;;;;;;3.20;1.60;;;;;;;16.34;71.62;100570.22;4970306;28;20435;-81
2021/08/09 06:22:29;;;;;;;4.37;1.40;;;;;;;16.36;70.70;100576.25;4971411;28;20455;-81
2021/08/09 06:24:54;;;;;;;3.33;1.70;;;;;;;16.43;70.70;100578.69;4969334;28;20447;-80
2021/08/09 06:27:19;;;;;;;6.17;1.97;;;;;;;16.46;70.86;100583.59;4937158;28;20412;-81
2021/08/09 06:29:45;;;;;;;5.18;1.67;;;;;;;16.50;70.67;100581.91;4969044;28;20910;-81
2021/08/09 06:32:10;;;;;;;2.67;1.70;;;;;;;16.56;69.85;100581.63;4967090;28;20495;-82
2021/08/09 06:34:35;;;;;;;2.47;1.20;;;;;;;16.65;69.46;100586.53;4969765;28;20420;-82
2021/08/09 06:37:01;;;;;;;2.70;1.57;;;;;;;16.75;69.24;100590.03;4968822;28;20502;-81
2021/08/09 06:39:26;;;;;;;3.20;1.50;;;;;;;16.81;69.81;100583.44;4949448;28;20443;-81
2021/08/09 06:41:52;;;;;;;3.88;1.55;;;;;;;16.85;68.77;100592.72;4967237;28;20430;-81
2021/08/09 06:44:17;;;;;;;1.30;1.20;;;;;;;16.89;68.49;100596.50;4966992;28;20431;-83
2021/08/09 06:46:42;;;;;;;4.72;1.10;;;;;;;16.92;68.26;100598.69;4966400;28;20416;-83
2021/08/09 06:49:08;;;;;;;2.70;1.00;;;;;;;17.00;68.51;100606.28;4969226;28;20455;-80
2021/08/09 06:51:33;;;;;;;3.80;1.30;;;;;;;16.96;69.01;100609.88;4969131;28;20906;-82
2021/08/09 06:54:01;;;;;;;1.88;1.30;;;;;;;16.98;69.04;100610.44;4955583;28;20435;-83
2021/08/09 06:56:27;;;;;;;3.53;1.27;;;;;;;17.01;69.31;100613.41;4951546;28;20554;-82
2021/08/09 06:58:52;;;;;;;3.33;1.13;;;;;;;17.06;69.70;100616.09;4950701;28;20541;-81
2021/08/09 07:01:17;;;;;;;2.60;1.20;;;;;;;17.08;69.82;100621.31;4932338;29;20437;-83
2021/08/09 07:03:45;;;;;;;5.47;1.43;;;;;;;17.14;69.92;100625.66;4947205;29;20444;-85
2021/08/09 07:06:21;;;;;;;2.75;1.30;;;;;;;17.19;69.81;100616.59;4948308;28;20413;-82
2021/08/09 07:08:48;;;;;;;4.63;1.30;;;;;;;17.23;69.47;100615.72;4950289;28;20429;-86
2021/08/09 07:11:13;;;;;;;3.28;1.30;;;;;;;17.27;69.31;100614.06;4951727;28;20410;-83
2021/08/09 07:13:39;;;;;;;2.53;1.43;;;;;;;17.28;68.84;100606.66;4951321;28;20465;-82
2021/08/09 07:16:04;;;;;;;1.70;1.00;;;;;;;17.32;68.66;100602.25;4947897;28;20433;-83
2021/08/09 07:18:32;;;;;;;1.80;1.13;;;;;;;17.35;68.77;100598.94;4950528;28;20900;-82
2021/08/09 07:20:57;;;;;;;2.70;1.33;;;;;;;17.40;68.60;100604.38;4951313;28;20817;-88
2021/08/09 07:23:22;;;;;;;4.33;1.80;;;;;;;17.44;68.23;100611.75;4951018;28;20418;-81
2021/08/09 07:25:47;;;;;;;3.58;1.70;;;;;;;17.55;68.26;100615.22;4952267;28;20920;-83
2021/08/09 07:28:13;;;;;;;3.57;1.40;;;;;;;17.54;67.86;100608.09;4953345;28;20414;-82
2021/08/09 07:30:38;;;;;;;3.27;1.10;;;;;;;17.57;67.39;100613.03;4951992;28;20406;-84
2021/08/09 07:33:03;;;;;;;1.83;1.10;;;;;;;17.62;67.75;100613.78;4949539;28;20413;-83
2021/08/09 07:35:29;;;;;;;3.93;1.53;;;;;;;17.71;67.72;100615.91;4946815;28;20473;-83
2021/08/09 07:37:54;;;;;;;5.73;1.53;;;;;;;17.81;67.79;100607.59;4933183;29;20422;-86
2021/08/09 07:40:20;;;;;;;2.08;1.42;;;;;;;17.85;68.06;100608.66;4947827;28;20586;-86
2021/08/09 07:42:45;;;;;;;1.67;1.40;;;;;;;17.86;66.93;100602.88;4951152;28;20461;-82
2021/08/09 07:45:11;;;;;;;1.10;0.97;;;;;;;17.92;66.54;100609.94;4950206;28;20873;-85
2021/08/09 07:47:36;;;;;;;3.17;1.13;;;;;;;18.00;67.42;100597.53;4950212;28;20506;-85
2021/08/09 07:50:02;;;;;;;2.45;1.13;;;;;;;18.08;67.27;100605.09;4944873;28;20421;-84
2021/08/09 07:52:28;;;;;;;1.40;1.00;;;;;;;18.14;66.95;100601.22;4949297;28;20432;-86
2021/08/09 07:54:55;;;;;;;3.03;1.43;;;;;;;18.18;66.87;100606.94;4964104;28;20949;-81
2021/08/09 07:57:20;;;;;;;2.85;1.38;;;;;;;18.23;65.02;100601.41;4966710;28;20467;-82
2021/08/09 07:59:45;;;;;;;2.63;0.90;;;;;;;18.32;64.92;100600.44;4966690;28;20416;-80
2021/08/09 08:02:10;;;;;;;3.23;1.20;;;;;;;18.45;63.59;100604.41;4965485;28;20424;-80
2021/08/09 08:04:36;;;;;;;4.33;1.20;;;;;;;18.58;62.90;100607.28;4967246;28;20419;-81
2021/08/09 08:07:01;;;;;;;2.40;1.30;;;;;;;18.73;62.60;100606.28;4967179;28;20516;-81
2021/08/09 08:09:26;;;;;;;3.70;0.90;;;;;;;18.86;61.68;100607.47;4967206;28;20467;-81
2021/08/09 08:11:52;;;;;;;1.43;1.10;;;;;;;18.92;62.13;100609.84;4966733;28;20482;-83
2021/08/09 08:14:17;;;;;;;1.63;0.83;;;;;;;18.85;61.58;100597.59;4966342;28;20540;-80
2021/08/09 08:16:43;;;;;;;2.40;0.80;;;;;;;18.85;62.31;100606.66;4965492;28;20463;-81
2021/08/09 08:19:08;;;;;;;3.27;1.40;;;;;;;18.89;63.21;100607.72;4967653;28;20466;-80
2021/08/09 08:21:33;;;;;;;1.60;0.90;;;;;;;18.92;62.33;100612.59;4967046;28;20431;-79
2021/08/09 08:23:58;;;;;;;3.67;0.93;;;;;;;18.94;60.99;100610.38;4966583;28;20438;-80
2021/08/09 08:26:24;;;;;;;2.67;1.10;;;;;;;18.99;61.94;100606.75;4967164;28;20438;-80
2021/08/09 08:28:49;;;;;;;3.20;1.17;;;;;;;19.14;61.58;100609.25;4967558;28;20450;-79
2021/08/09 08:31:14;;;;;;;2.10;0.90;;;;;;;19.26;60.85;100611.56;4966983;28;20420;-80
2021/08/09 08:33:40;;;;;;;4.83;1.13;;;;;;;19.39;59.36;100606.13;4966882;28;20803;-79
2021/08/09 08:36:05;;;;;;;4.97;1.43;;;;;;;19.50;59.37;100610.34;4967582;28;20423;-80
2021/08/09 08:38:30;;;;;;;1.43;0.90;;;;;;;19.59;59.70;100607.75;4967449;28;20506;-80
2021/08/09 08:40:57;;;;;;;2.10;1.37;;;;;;;19.63;60.75;100612.31;4965236;28;20914;-80
2021/08/09 08:43:25;;;;;;;5.53;1.05;;;;;;;19.63;61.30;100606.00;4966424;28;20419;-80
2021/08/09 08:45:56;;;;;;;3.95;0.90;;;;;;;19.66;60.73;100610.91;4963974;28;20871;-80
2021/08/09 08:48:23;;;;;;;2.33;0.80;;;;;;;19.77;60.98;100597.81;4966893;28;20416;-82
2021/08/09 08:50:48;;;;;;;1.23;0.60;;;;;;;19.91;60.31;100601.41;4966514;28;20910;-80
2021/08/09 08:53:14;;;;;;;2.23;0.80;;;;;;;20.01;59.90;100604.78;4961668;28;20430;-81
2021/08/09 08:55:39;;;;;;;3.40;1.20;;;;;;;20.16;58.95;100609.97;4954596;28;21010;-81
2021/08/09 08:58:04;;;;;;;3.83;0.90;;;;;;;20.25;59.23;100607.34;4954214;28;20411;-81
2021/08/09 09:00:36;;;;;;;1.38;0.80;;;;;;;20.30;58.62;100612.78;4955049;28;20443;-80
2021/08/09 09:03:14;;;;;;;6.68;3.88;;;;;;;20.42;58.17;100610.31;4960359;28;20452;-79
2021/08/09 09:05:40;;;;;;;2.70;2.17;;;;;;;20.51;55.83;100608.50;4956629;28;20419;-81
2021/08/09 09:08:05;;;;;;;1.90;0.97;;;;;;;20.66;55.96;100610.09;4958451;28;20478;-81
2021/08/09 09:10:36;;;;;;;1.40;0.70;;;;;;;20.74;54.80;100605.81;4953429;28;20409;-81
2021/08/09 09:13:08;;;;;;;3.17;1.25;;;;;;;20.67;54.40;100606.22;4947586;28;20425;-81
2021/08/09 09:16:02;;;;;;;1.02;0.90;;;;;;;20.82;54.64;100608.66;4946550;28;20423;-81
2021/08/09 09:18:43;;;;;;;2.25;0.90;;;;;;;21.08;56.19;100614.38;4960758;28;20453;-80
2021/08/09 09:21:23;;;;;;;1.50;0.70;;;;;;;21.38;54.60;100610.94;4963483;28;20428;-81
2021/08/09 09:23:49;;;;;;;2.38;1.05;;;;;;;21.50;54.87;100613.97;4962211;28;20498;-82
2021/08/09 09:26:22;;;;;;;3.45;0.90;;;;;;;21.74;54.46;100614.44;4963430;28;20483;-81
2021/08/09 09:28:49;;;;;;;1.40;0.65;;;;;;;21.99;54.06;100614.94;4963631;28;20455;-80
2021/08/09 09:31:31;;;;;;;3.45;0.90;;;;;;;22.33;52.08;100604.03;4956070;28;20909;-80
2021/08/09 09:33:57;;;;;;;2.00;0.60;;;;;;;22.50;51.31;100604.09;4955859;28;21169;-80
2021/08/09 09:36:23;;;;;;;0.80;0.40;;;;;;;22.60;50.79;100614.84;4955298;28;20406;-80
2021/08/09 09:38:51;;;;;;;2.90;0.77;;;;;;;22.84;50.93;100617.22;4955227;28;21023;-82
2021/08/09 09:41:16;;;;;;;1.40;0.60;;;;;;;22.98;50.35;100612.38;4947950;28;20753;-82
2021/08/09 09:43:44;;;;;;;2.30;0.80;;;;;;;23.08;50.16;100617.59;4955995;28;20437;-82
2021/08/09 09:46:24;;;;;;;1.23;0.60;;;;;;;23.25;48.05;100613.97;4955683;28;20472;-82
2021/08/09 09:48:50;;;;;;;0.90;0.70;;;;;;;23.34;48.64;100617.56;4955753;28;20888;-80
2021/08/09 09:51:18;;;;;;;1.38;0.88;;;;;;;23.28;48.40;100616.91;4955909;28;20414;-81
2021/08/09 09:53:45;;;;;;;1.08;0.60;;;;;;;23.03;48.72;100614.97;4979269;28;20428;-79
2021/08/09 09:56:11;;;;;;;2.20;0.80;;;;;;;22.73;47.39;100619.47;4973711;28;20772;-80
2021/08/09 09:58:38;;;;;;;1.33;0.60;;;;;;;22.56;48.74;100624.91;4975167;28;20400;-78
2021/08/09 10:01:05;;;;;;;1.60;0.70;;;;;;;22.49;49.89;100626.53;4974989;28;20435;-79
2021/08/09 10:03:34;;;;;;;2.65;1.00;;;;;;;22.40;48.41;100617.38;4981858;28;20447;-80
2021/08/09 10:06:03;;;;;;;2.55;0.60;;;;;;;22.37;50.18;100624.38;4974052;28;20408;-79
2021/08/09 10:08:41;;;;;;;3.60;0.87;;;;;;;22.42;49.15;100624.22;4989381;28;20408;-81
2021/08/09 10:11:08;;;;;;;2.00;0.80;;;;;;;22.43;48.74;100617.56;4974290;28;20404;-80
2021/08/09 10:13:35;;;;;;;0.80;0.63;;;;;;;22.46;50.04;100625.19;4973473;28;20404;-82
2021/08/09 10:16:04;;;;;;;4.05;0.85;;;;;;;22.52;50.31;100632.22;4970552;28;20445;-80
2021/08/09 10:18:32;;;;;;;0.80;0.80;;;;;;;22.68;50.58;100630.69;4986213;28;20411;-81
2021/08/09 10:20:59;;;;;;;1.48;0.55;;;;;;;22.87;50.17;100630.38;4971939;28;20740;-80
2021/08/09 10:23:39;;;;;;;4.22;0.82;;;;;;;23.00;49.12;100626.66;4974302;28;20410;-80
2021/08/09 10:26:06;;;;;;;2.90;1.10;;;;;;;23.13;48.15;100622.94;4988585;28;20440;-80
2021/08/09 10:28:50;;;;;;;0.98;0.90;;;;;;;23.11;49.18;100629.94;4984330;28;20394;-81
2021/08/09 10:31:35;;;;;;;0.90;0.60;;;;;;;23.06;48.23;100622.59;4957862;28;20950;-82
2021/08/09 10:34:02;;;;;;;2.33;0.75;;;;;;;23.12;48.83;100637.06;4968219;28;20420;-80
2021/08/09 10:36:27;;;;;;;1.33;0.65;;;;;;;23.23;49.75;100632.84;4973668;28;20408;-81
2021/08/09 10:38:55;;;;;;;3.40;0.90;;;;;;;23.38;49.43;100629.59;4972148;28;20419;-80
2021/08/09 10:41:23;;;;;;;1.83;0.70;;;;;;;23.66;48.59;100630.09;4971911;28;20420;-79
2021/08/09 10:44:07;;;;;;;0.70;0.53;;;;;;;24.12;46.75;100629.38;4970611;28;20419;-80
2021/08/09 10:46:44;;;;;;;0.80;0.77;;;;;;;25.43;43.59;100624.34;4964466;28;20425;-80
2021/08/09 10:49:46;;;;;;;1.73;0.88;;;;;;;27.72;39.30;100622.78;4967885;28;20420;-81
2021/08/09 10:52:11;;;;;;;1.15;0.82;;;;;;;29.19;37.25;100624.06;4969058;28;20447;-81
2021/08/09 10:54:37;;;;;;;2.37;0.70;;;;;;;30.08;34.12;100623.91;4917673;28;20520;-81
2021/08/09 10:57:05;;;;;;;5.47;0.90;;;;;;;29.03;34.77;100625.31;4945843;28;20782;-81
2021/08/09 10:59:47;;;;;;;1.42;0.73;;;;;;;27.38;38.28;100631.72;4948977;28;20422;-82
2021/08/09 11:02:19;;;;;;;3.15;0.65;;;;;;;26.56;40.06;100625.56;4954027;29;20534;-81
2021/08/09 11:05:15;;;;;;;1.35;0.50;;;;;;;25.99;40.66;100622.81;4950454;28;20433;-82
2021/08/09 11:07:44;;;;;;;3.60;0.82;;;;;;;25.69;41.38;100619.38;4948251;28;20409;-79
2021/08/09 11:10:11;;;;;;;1.95;0.80;;;;;;;25.85;42.80;100619.56;4948161;28;20487;-81
2021/08/09 11:12:59;;;;;;;1.65;0.70;;;;;;;28.60;36.17;100612.31;4947080;28;20484;-81
2021/08/09 11:15:25;;;;;;;2.35;0.93;;;;;;;31.17;32.39;100621.25;4944280;28;20892;-81
2021/08/09 11:17:53;;;;;;;0.90;0.53;;;;;;;32.19;29.75;100610.47;4947338;28;20417;-81
2021/08/09 11:20:45;;;;;;;1.02;0.63;;;;;;;31.63;30.21;100617.06;4947739;29;20421;-81
2021/08/09 11:23:12;;;;;;;6.60;1.88;;;;;;;30.68;30.67;100618.53;4943589;29;20416;-81
2021/08/09 11:25:38;;;;;;;3.45;1.63;;;;;;;29.43;32.86;100606.25;4952367;28;20413;-80